createdAt,value
2022-09-21T00:11:02.685Z,71
2022-09-21T00:12:11.890Z,68
2022-09-21T00:16:54.765Z,67
2022-09-21T00:21:37.654Z,78
2022-09-21T00:27:10.520Z,78
2022-09-21T00:30:39.002Z,82
2022-09-21T00:35:21.922Z,75
2022-09-21T00:40:04.776Z,81
2022-09-21T00:45:17.806Z,84
2022-09-21T00:46:24.483Z,79
2022-09-21T00:49:57.906Z,83
2022-09-21T00:54:40.736Z,85
2022-09-21T00:55:52.421Z,90
2022-09-21T00:59:15.869Z,90
2022-09-21T01:03:58.669Z,96
2022-09-21T01:27:50.050Z,106
2022-09-21T01:32:37.945Z,108
2022-09-21T01:37:30.774Z,113
2022-09-21T01:42:51.435Z,118
2022-09-21T01:47:23.517Z,114
2022-09-21T01:52:56.234Z,114
2022-09-21T01:57:47.305Z,114
2022-09-21T02:03:31.131Z,112
2022-09-21T02:08:16.933Z,106
2022-09-21T02:13:47.629Z,116
2022-09-21T02:17:16.161Z,114
2022-09-21T02:18:30.295Z,111
2022-09-21T02:19:44.606Z,115
2022-09-21T02:24:35.362Z,116
2022-09-21T02:29:05.371Z,119
2022-09-21T02:30:17.450Z,115
2022-09-21T02:33:41.149Z,111
2022-09-21T02:34:48.208Z,121
2022-09-21T02:40:18.630Z,114
2022-09-21T02:41:27.748Z,104
2022-09-21T02:44:55.165Z,100
2022-09-21T02:49:41.161Z,111
2022-09-21T02:55:09.489Z,107
2022-09-21T02:59:52.513Z,102
2022-09-21T03:05:05.525Z,90
2022-09-21T03:10:18.416Z,88
2022-09-21T03:14:51.237Z,92
2022-09-21T03:19:34.173Z,97
2022-09-21T03:24:17.298Z,98
2022-09-21T03:29:45.084Z,96
2022-09-21T03:34:58.105Z,104
2022-09-21T03:40:11.006Z,90
2022-09-21T03:44:53.913Z,107
2022-09-21T03:50:09.930Z,100
2022-09-21T03:55:19.389Z,93
2022-09-21T03:59:51.608Z,96
2022-09-21T04:04:34.587Z,124
2022-09-21T04:09:47.205Z,103
2022-09-21T04:14:19.433Z,99
2022-09-21T04:19:32.333Z,114
2022-09-21T04:24:15.217Z,104
2022-09-21T04:27:05.048Z,103
2022-09-21T04:28:39.497Z,101
2022-09-21T04:29:43.619Z,100
2022-09-21T04:31:14.245Z,101
2022-09-21T04:32:18.224Z,94
2022-09-21T04:33:25.997Z,98
2022-09-21T04:34:30.121Z,93
2022-09-21T04:35:59.217Z,88
2022-09-21T04:37:03.392Z,91
2022-09-21T04:38:09.903Z,95
2022-09-21T04:39:14.033Z,97
2022-09-21T04:50:33.456Z,90
2022-09-21T04:51:42.717Z,97
2022-09-21T04:52:49.300Z,101
2022-09-21T04:53:53.660Z,97
2022-09-21T04:56:47.106Z,95
2022-09-21T04:57:51.292Z,98
2022-09-21T04:58:55.582Z,94
2022-09-21T05:00:11.836Z,93
2022-09-21T05:01:16.062Z,102
2022-09-21T05:04:09.604Z,87
2022-09-21T05:05:13.772Z,90
2022-09-21T05:09:56.877Z,91
2022-09-21T05:11:03.640Z,100
2022-09-21T05:14:37.248Z,88
2022-09-21T05:15:41.405Z,87
2022-09-21T05:19:07.776Z,85
2022-09-21T05:23:50.600Z,83
2022-09-21T05:25:17.404Z,82
2022-09-21T05:26:21.746Z,80
2022-09-21T05:29:48.896Z,79
2022-09-21T05:34:46.773Z,75
2022-09-21T05:38:52.885Z,75
2022-09-21T05:39:57.108Z,74
2022-09-21T05:42:35.784Z,77
2022-09-21T05:43:39.935Z,78
2022-09-21T05:44:46.977Z,75
2022-09-21T05:45:51.256Z,73
2022-09-21T05:47:03.217Z,73
2022-09-21T05:48:12.297Z,75
2022-09-21T05:49:24.221Z,76
2022-09-21T05:50:36.212Z,72
2022-09-21T05:51:48.192Z,78
2022-09-21T05:52:57.257Z,79
2022-09-21T05:54:09.109Z,72
2022-09-21T05:56:03.497Z,71
2022-09-21T05:57:12.589Z,73
2022-09-21T05:58:26.907Z,67
2022-09-21T05:59:38.776Z,91
2022-09-21T06:00:52.996Z,75
2022-09-21T06:02:02.346Z,78
2022-09-21T06:03:17.505Z,71
2022-09-21T06:04:23.369Z,71
2022-09-21T06:05:57.765Z,71
2022-09-21T06:07:01.832Z,68
2022-09-21T06:08:05.888Z,68
2022-09-21T06:09:17.220Z,68
2022-09-21T06:10:21.368Z,71
2022-09-21T06:11:27.520Z,76
2022-09-21T06:12:31.612Z,70
2022-09-21T06:13:35.860Z,69
2022-09-21T06:16:16.488Z,71
2022-09-21T06:17:34.072Z,70
2022-09-21T06:18:38.337Z,68
2022-09-21T06:22:04.773Z,69
2022-09-21T06:23:29.448Z,76
2022-09-21T06:24:33.660Z,72
2022-09-21T06:25:58.775Z,69
2022-09-21T06:27:01.942Z,74
2022-09-21T06:28:06.068Z,76
2022-09-21T06:29:38.350Z,73
2022-09-21T06:30:42.585Z,82
2022-09-21T06:31:51.664Z,77
2022-09-21T06:32:55.848Z,75
2022-09-21T06:36:01.720Z,71
2022-09-21T06:37:05.812Z,81
2022-09-21T06:38:09.844Z,80
2022-09-21T06:39:19.873Z,80
2022-09-21T06:40:24.035Z,73
2022-09-21T06:41:33.016Z,78
2022-09-21T06:42:37.146Z,63
2022-09-21T06:43:41.236Z,74
2022-09-21T06:44:45.956Z,70
2022-09-21T06:45:50.179Z,72
2022-09-21T06:46:56.764Z,75
2022-09-21T06:48:13.738Z,73
2022-09-21T06:49:17.791Z,80
2022-09-21T06:52:01.384Z,78
2022-09-21T06:54:55.016Z,84
2022-09-21T06:55:59.180Z,72
2022-09-21T06:59:43.712Z,69
2022-09-21T07:00:47.969Z,77
2022-09-21T07:02:12.546Z,80
2022-09-21T07:03:16.716Z,73
2022-09-21T07:06:15.875Z,74
2022-09-21T07:07:20.188Z,67
2022-09-21T07:10:43.712Z,68
2022-09-21T07:13:32.036Z,57
2022-09-21T07:16:55.482Z,50
2022-09-21T07:18:14.436Z,52
2022-09-21T07:19:18.544Z,66
2022-09-21T07:20:27.832Z,68
2022-09-21T07:21:31.996Z,60
2022-09-21T07:24:46.064Z,62
2022-09-21T07:25:50.008Z,60
2022-09-21T07:26:54.053Z,61
2022-09-21T07:27:59.032Z,60
2022-09-21T07:29:03.188Z,59
2022-09-21T07:30:09.303Z,61
2022-09-21T07:31:13.515Z,63
2022-09-21T07:32:17.759Z,65
2022-09-21T07:35:11.456Z,69
2022-09-21T07:40:12.974Z,72
2022-09-21T07:41:19.023Z,70
2022-09-21T07:42:23.160Z,65
2022-09-21T07:43:45.972Z,64
2022-09-21T07:44:50.263Z,78
2022-09-21T07:47:43.588Z,66
2022-09-21T07:48:47.760Z,69
2022-09-21T07:53:07.371Z,64
2022-09-21T07:54:11.487Z,63
2022-09-21T07:55:26.808Z,57
2022-09-21T07:56:30.967Z,62
2022-09-21T07:59:49.504Z,40
2022-09-21T08:00:53.789Z,50
2022-09-21T08:03:47.259Z,59
2022-09-21T08:04:53.919Z,56
2022-09-21T08:06:14.692Z,54
2022-09-21T08:07:18.832Z,61
2022-09-21T08:11:48.547Z,71
2022-09-21T08:12:57.704Z,74
2022-09-21T08:14:01.978Z,71
2022-09-21T08:18:29.595Z,65
2022-09-21T08:21:57.412Z,63
2022-09-21T08:27:12.039Z,66
2022-09-21T08:28:16.361Z,59
2022-09-21T08:31:45.037Z,59
2022-09-21T08:32:51.677Z,73
2022-09-21T08:33:53.171Z,60
2022-09-21T08:35:04.991Z,60
2022-09-21T08:36:09.248Z,55
2022-09-21T08:37:23.419Z,56
2022-09-21T08:38:27.495Z,58
2022-09-21T08:39:34.505Z,60
2022-09-21T08:43:07.939Z,50
2022-09-21T08:44:12.100Z,53
2022-09-21T08:45:19.183Z,61
2022-09-21T08:46:24.808Z,66
2022-09-21T08:47:28.817Z,62
2022-09-21T08:48:42.971Z,60
2022-09-21T08:49:50.035Z,53
2022-09-21T08:50:56.948Z,50
2022-09-21T08:52:02.791Z,48
2022-09-21T08:53:06.939Z,62
2022-09-21T08:54:14.087Z,54
2022-09-21T08:55:20.927Z,65
2022-09-21T08:57:06.035Z,69
2022-09-21T08:58:14.320Z,47
2022-09-21T08:59:21.399Z,60
2022-09-21T09:02:50.064Z,55
2022-09-21T09:03:56.655Z,42
2022-09-21T09:05:05.776Z,35
2022-09-21T09:06:18.063Z,48
2022-09-21T09:07:27.131Z,34
2022-09-21T09:08:41.322Z,39
2022-09-21T09:09:51.183Z,33
2022-09-21T09:10:55.243Z,60
2022-09-21T09:12:11.150Z,53
2022-09-21T09:13:18.500Z,32
2022-09-21T09:14:27.864Z,36
2022-09-21T09:15:36.923Z,31
2022-09-21T09:16:44.047Z,34
2022-09-21T09:17:58.175Z,38
2022-09-21T09:19:07.200Z,30
2022-09-21T09:20:21.439Z,34
2022-09-21T09:21:32.311Z,35
2022-09-21T09:22:35.671Z,25
2022-09-21T09:23:42.680Z,46
2022-09-21T09:24:51.805Z,35
2022-09-21T09:25:55.802Z,35
2022-09-21T09:26:59.963Z,29
2022-09-21T09:28:04.034Z,37
2022-09-21T09:29:18.143Z,42
2022-09-21T09:30:27.296Z,36
2022-09-21T09:31:31.525Z,28
2022-09-21T09:32:35.719Z,34
2022-09-21T09:33:44.975Z,34
2022-09-21T09:34:53.993Z,35
2022-09-21T09:36:03.067Z,29
2022-09-21T09:37:07.123Z,25
2022-09-21T09:38:13.991Z,35
2022-09-21T09:39:26.283Z,28
2022-09-21T09:40:30.558Z,26
2022-09-21T09:41:34.475Z,35
2022-09-21T09:42:46.359Z,47
2022-09-21T09:43:55.417Z,28
2022-09-21T09:45:09.591Z,35
2022-09-21T09:46:18.708Z,28
2022-09-21T09:47:30.823Z,27
2022-09-21T09:48:35.003Z,27
2022-09-21T09:49:44.826Z,35
2022-09-21T09:50:59.187Z,39
2022-09-21T09:52:03.279Z,35
2022-09-21T09:53:07.280Z,25
2022-09-21T09:54:21.436Z,25
2022-09-21T09:55:28.267Z,30
2022-09-21T09:56:38.256Z,28
2022-09-21T09:57:42.243Z,29
2022-09-21T09:58:46.271Z,26
2022-09-21T09:59:54.144Z,25
2022-09-21T10:00:54.520Z,25
2022-09-21T10:01:58.744Z,27
2022-09-21T10:03:07.815Z,46
2022-09-21T10:04:17.019Z,57
2022-09-21T10:05:20.931Z,37
2022-09-21T10:06:25.095Z,37
2022-09-21T10:07:31.832Z,35
2022-09-21T10:11:05.555Z,49
2022-09-21T10:12:10.531Z,36
2022-09-21T10:13:16.984Z,43
2022-09-21T10:14:23.700Z,49
2022-09-21T10:17:47.238Z,32
2022-09-21T10:18:51.443Z,49
2022-09-21T10:20:59.627Z,49
2022-09-21T10:24:26.459Z,36
2022-09-21T10:27:50.113Z,31
2022-09-21T10:28:54.149Z,31
2022-09-21T10:33:18.542Z,30
2022-09-21T10:34:22.690Z,39
2022-09-21T10:38:57.293Z,55
2022-09-21T10:40:11.521Z,64
2022-09-21T10:41:18.327Z,56
2022-09-21T10:44:51.873Z,40
2022-09-21T10:46:06.079Z,47
2022-09-21T10:47:11.091Z,33
2022-09-21T10:52:47.719Z,25
2022-09-21T10:54:01.888Z,37
2022-09-21T11:07:51.628Z,60
2022-09-21T11:09:03.671Z,53
2022-09-21T11:12:27.200Z,52
2022-09-21T11:13:31.606Z,40
2022-09-21T11:14:45.762Z,41
2022-09-21T11:15:57.813Z,36
2022-09-21T11:17:42.109Z,26
2022-09-21T11:18:46.124Z,26
2022-09-21T11:19:58.135Z,26
2022-09-21T11:21:07.268Z,36
2022-09-21T11:22:19.974Z,26
2022-09-21T11:23:38.793Z,29
2022-09-21T11:24:47.866Z,26
2022-09-21T11:25:59.628Z,35
2022-09-21T11:27:08.810Z,45
2022-09-21T11:28:15.651Z,28
2022-09-21T11:29:19.720Z,36
2022-09-21T11:30:29.214Z,37
2022-09-21T11:31:48.326Z,31
2022-09-21T11:33:02.502Z,30
2022-09-21T11:34:16.887Z,29
2022-09-21T11:35:26.018Z,32
2022-09-21T11:36:35.163Z,29
2022-09-21T11:37:44.451Z,42
2022-09-21T11:38:53.611Z,30
2022-09-21T11:40:02.786Z,30
2022-09-21T11:41:11.882Z,45
2022-09-21T11:42:23.979Z,33
2022-09-21T11:43:33.226Z,35
2022-09-21T11:44:47.471Z,39
2022-09-21T11:45:54.229Z,43
2022-09-21T11:47:08.415Z,27
2022-09-21T11:48:20.837Z,25
2022-09-21T11:49:28.114Z,25
2022-09-21T11:50:40.382Z,27
2022-09-21T11:51:49.358Z,36
2022-09-21T11:52:56.430Z,26
2022-09-21T11:54:08.754Z,30
2022-09-21T11:55:27.958Z,28
2022-09-21T11:56:40.202Z,33
2022-09-21T11:57:55.058Z,35
2022-09-21T11:59:04.457Z,26
2022-09-21T12:00:13.698Z,27
2022-09-21T12:01:20.946Z,37
2022-09-21T12:02:28.455Z,45
2022-09-21T12:03:42.528Z,35
2022-09-21T12:04:49.799Z,32
2022-09-21T12:06:04.118Z,33
2022-09-21T12:07:18.292Z,46
2022-09-21T12:08:25.302Z,30
2022-09-21T12:09:34.536Z,25
2022-09-21T12:10:43.774Z,27
2022-09-21T12:11:58.050Z,31
2022-09-21T12:13:12.386Z,33
2022-09-21T12:14:21.536Z,38
2022-09-21T12:15:35.874Z,34
2022-09-21T12:18:59.494Z,39
2022-09-21T12:23:42.549Z,30
2022-09-21T12:24:52.731Z,35
2022-09-21T12:25:57.610Z,30
2022-09-21T12:27:02.049Z,25
2022-09-21T12:28:07.178Z,27
2022-09-21T12:29:21.539Z,40
2022-09-21T12:30:30.886Z,33
2022-09-21T12:31:39.826Z,39
2022-09-21T12:32:54.631Z,33
2022-09-21T12:36:09.931Z,29
2022-09-21T12:37:19.685Z,38
2022-09-21T12:39:46.046Z,32
2022-09-21T12:40:56.374Z,25
2022-09-21T12:42:15.501Z,29
2022-09-21T12:43:27.350Z,33
2022-09-21T12:44:36.609Z,32
2022-09-21T12:48:04.283Z,32
2022-09-21T12:49:18.682Z,33
2022-09-21T12:50:27.811Z,42
2022-09-21T12:51:31.962Z,36
2022-09-21T12:56:10.073Z,41
2022-09-21T12:59:32.975Z,36
2022-09-21T13:00:44.973Z,34
2022-09-21T13:01:57.247Z,40
2022-09-21T13:07:35.595Z,40
2022-09-21T13:12:58.625Z,44
2022-09-21T13:17:28.677Z,44
2022-09-21T13:23:06.864Z,81
2022-09-21T13:27:54.897Z,60
2022-09-21T13:32:40.744Z,48
2022-09-21T13:38:01.756Z,39
2022-09-21T13:39:16.060Z,40
2022-09-21T13:42:39.415Z,38
2022-09-21T13:43:48.588Z,41
2022-09-21T13:49:09.156Z,60
2022-09-21T13:53:39.179Z,35
2022-09-21T13:59:19.887Z,49
2022-09-21T14:02:43.510Z,40
2022-09-21T14:05:37.060Z,53
2022-09-21T14:10:22.784Z,55
2022-09-21T14:13:14.011Z,64
2022-09-21T14:16:45.505Z,55
2022-09-21T14:22:01.113Z,46
2022-09-21T14:27:13.848Z,46
2022-09-21T14:31:05.320Z,46
2022-09-21T14:32:19.619Z,52
2022-09-21T14:33:48.979Z,47
2022-09-21T14:37:12.592Z,67
2022-09-21T14:42:30.515Z,73
2022-09-21T14:47:43.317Z,77
2022-09-21T14:49:51.247Z,77
2022-09-21T14:54:15.911Z,125
2022-09-21T14:56:08.619Z,132
2022-09-21T14:57:20.154Z,135
2022-09-21T14:58:31.922Z,142
2022-09-21T14:59:41.028Z,132
2022-09-21T15:00:50.406Z,131
2022-09-21T15:02:09.406Z,131
2022-09-21T15:03:23.736Z,136
2022-09-21T15:04:30.727Z,155
2022-09-21T15:05:54.577Z,136
2022-09-21T15:07:06.936Z,170
2022-09-21T15:10:40.548Z,132
2022-09-21T15:12:00.000Z,138
2022-09-21T15:13:16.934Z,129
2022-09-21T15:14:26.757Z,123
2022-09-21T15:15:38.738Z,117
2022-09-21T15:16:52.110Z,123
2022-09-21T15:17:59.421Z,103
2022-09-21T15:19:10.643Z,107
2022-09-21T15:22:05.034Z,98
2022-09-21T15:25:21.969Z,101
2022-09-21T15:28:19.034Z,110
2022-09-21T15:29:51.153Z,107
2022-09-21T15:35:06.462Z,107
2022-09-21T15:36:20.942Z,103
2022-09-21T15:39:40.798Z,106
2022-09-21T15:40:45.054Z,109
2022-09-21T15:42:14.580Z,117
2022-09-21T15:47:13.842Z,107
2022-09-21T15:49:01.880Z,118
2022-09-21T15:54:09.379Z,114
2022-09-21T15:55:31.881Z,107
2022-09-21T15:56:36.002Z,107
2022-09-21T16:00:01.926Z,103
2022-09-21T16:01:46.534Z,106
2022-09-21T16:02:50.637Z,104
2022-09-21T16:04:20.205Z,118
2022-09-21T16:05:24.274Z,107
2022-09-21T16:06:28.365Z,105
2022-09-21T16:09:27.641Z,100
2022-09-21T16:12:27.173Z,111
2022-09-21T16:13:41.575Z,105
2022-09-21T16:17:21.469Z,102
2022-09-21T16:18:25.628Z,98
2022-09-21T16:19:45.388Z,105
2022-09-21T16:22:55.662Z,107
2022-09-21T16:24:05.072Z,105
2022-09-21T16:25:19.306Z,96
2022-09-21T16:26:56.786Z,95
2022-09-21T16:29:42.762Z,96
2022-09-21T16:33:08.901Z,100
2022-09-21T16:34:23.192Z,99
2022-09-21T16:40:03.583Z,101
2022-09-21T16:41:33.163Z,114
2022-09-21T16:46:20.409Z,110
2022-09-21T16:47:34.597Z,107
2022-09-21T16:51:01.455Z,116
2022-09-21T16:52:10.676Z,111
2022-09-21T16:55:30.456Z,117
2022-09-21T16:58:24.765Z,113
2022-09-21T17:05:13.976Z,120
2022-09-21T17:06:18.895Z,113
2022-09-21T17:09:33.353Z,106
2022-09-21T17:11:04.185Z,113
2022-09-21T17:12:13.187Z,107
2022-09-21T17:13:17.263Z,110
2022-09-21T17:16:42.987Z,109
2022-09-21T17:18:00.291Z,108
2022-09-21T17:19:26.635Z,100
2022-09-21T17:22:50.856Z,108
2022-09-21T17:24:00.107Z,108
2022-09-21T17:29:14.502Z,109
2022-09-21T17:33:02.699Z,112
2022-09-21T17:34:06.696Z,112
2022-09-21T17:35:11.022Z,117
2022-09-21T17:52:15.148Z,105
2022-09-21T17:53:25.987Z,115
2022-09-21T17:54:35.520Z,108
2022-09-21T17:55:40.007Z,103
2022-09-21T18:00:24.595Z,104
2022-09-21T18:01:29.109Z,112
2022-09-21T18:02:36.050Z,110
2022-09-21T18:03:40.420Z,105
2022-09-21T18:04:45.335Z,101
2022-09-21T18:05:50.401Z,102
2022-09-21T18:06:58.083Z,102
2022-09-21T18:08:02.646Z,102
2022-09-21T18:09:07.224Z,99
2022-09-21T18:10:11.340Z,103
2022-09-21T18:11:16.519Z,104
2022-09-21T18:12:32.274Z,102
2022-09-21T18:13:36.163Z,103
2022-09-21T18:14:53.036Z,101
2022-09-21T18:16:07.840Z,95
2022-09-21T18:17:17.407Z,96
2022-09-21T18:18:32.056Z,108
2022-09-21T18:19:41.700Z,97
2022-09-21T18:20:56.184Z,98
2022-09-21T18:22:05.875Z,96
2022-09-21T18:23:13.104Z,93
2022-09-21T18:24:20.315Z,99
2022-09-21T18:25:28.288Z,98
2022-09-21T18:26:36.294Z,97
2022-09-21T18:27:41.112Z,97
2022-09-21T18:28:45.955Z,96
2022-09-21T18:29:51.179Z,102
2022-09-21T18:30:56.001Z,105
2022-09-21T18:32:00.471Z,107
2022-09-21T18:33:10.299Z,104
2022-09-21T18:35:34.753Z,103
2022-09-21T18:37:58.606Z,107
2022-09-21T18:39:11.105Z,96
2022-09-21T18:40:23.442Z,104
2022-09-21T18:41:37.911Z,99
2022-09-21T18:42:42.554Z,99
2022-09-21T18:43:46.914Z,102
2022-09-21T18:45:01.417Z,99
2022-09-21T18:46:08.941Z,99
2022-09-21T18:47:18.955Z,98
2022-09-21T18:48:23.234Z,96
2022-09-21T18:49:38.307Z,99
2022-09-21T18:50:47.678Z,94
2022-09-21T18:51:57.714Z,94
2022-09-21T18:53:08.718Z,95
2022-09-21T18:54:12.991Z,90
2022-09-21T18:55:20.126Z,91
2022-09-21T18:56:25.328Z,96
2022-09-21T18:57:30.211Z,88
2022-09-21T18:58:34.802Z,93
2022-09-21T18:59:40.170Z,79
2022-09-21T19:00:45.346Z,85
2022-09-21T19:01:51.412Z,86
2022-09-21T19:03:15.579Z,74
2022-09-21T19:04:00.156Z,88
2022-09-21T19:05:04.746Z,79
2022-09-21T19:06:09.539Z,82
2022-09-21T19:07:21.529Z,81
2022-09-21T19:08:28.921Z,75
2022-09-21T19:09:36.406Z,83
2022-09-21T19:10:50.927Z,82
2022-09-21T19:12:01.199Z,78
2022-09-21T19:13:12.043Z,73
2022-09-21T19:14:21.481Z,81
2022-09-21T19:15:58.888Z,77
2022-09-21T19:16:39.952Z,77
2022-09-21T19:17:49.348Z,78
2022-09-21T19:19:03.748Z,77
2022-09-21T19:20:21.985Z,83
2022-09-21T19:21:31.733Z,78
2022-09-21T19:22:44.438Z,83
2022-09-21T19:23:49.750Z,84
2022-09-21T19:25:02.153Z,81
2022-09-21T19:26:09.526Z,81
2022-09-21T19:27:21.467Z,80
2022-09-21T19:28:36.010Z,80
2022-09-21T19:29:43.342Z,76
2022-09-21T19:31:00.252Z,78
2022-09-21T19:32:05.094Z,74
2022-09-21T19:33:26.690Z,76
2022-09-21T19:34:24.605Z,76
2022-09-21T19:35:29.224Z,76
2022-09-21T19:37:37.323Z,75
2022-09-21T19:38:41.930Z,75
2022-09-21T19:39:46.298Z,72
2022-09-21T19:40:50.903Z,75
2022-09-21T19:41:56.411Z,77
2022-09-21T19:43:08.694Z,71
2022-09-21T19:44:21.366Z,80
2022-09-21T19:45:26.662Z,73
2022-09-21T19:46:40.209Z,74
2022-09-21T19:47:47.502Z,71
2022-09-21T19:48:54.966Z,68
2022-09-21T19:49:59.305Z,73
2022-09-21T19:51:08.742Z,76
2022-09-21T19:52:18.189Z,77
2022-09-21T19:53:22.814Z,67
2022-09-21T19:54:33.447Z,67
2022-09-21T19:55:43.337Z,69
2022-09-21T19:56:55.593Z,66
2022-09-21T19:58:03.034Z,72
2022-09-21T19:59:12.578Z,60
2022-09-21T20:00:22.414Z,72
2022-09-21T20:01:27.148Z,65
2022-09-21T20:02:32.086Z,71
2022-09-21T20:03:41.477Z,60
2022-09-21T20:04:46.458Z,71
2022-09-21T20:05:55.786Z,63
2022-09-21T20:07:02.725Z,67
2022-09-21T20:08:14.770Z,62
2022-09-21T20:09:21.902Z,62
2022-09-21T20:10:28.793Z,62
2022-09-21T20:11:35.784Z,64
2022-09-21T20:12:43.023Z,63
2022-09-21T20:13:47.465Z,62
2022-09-21T20:14:56.798Z,63
2022-09-21T20:16:12.358Z,57
2022-09-21T20:17:23.082Z,64
2022-09-21T20:18:32.525Z,62
2022-09-21T20:19:47.657Z,51
2022-09-21T20:20:57.037Z,55
2022-09-21T20:22:01.593Z,58
2022-09-21T20:23:15.134Z,59
2022-09-21T20:24:19.441Z,59
2022-09-21T20:25:27.109Z,59
2022-09-21T20:26:36.589Z,56
2022-09-21T20:27:40.853Z,58
2022-09-21T20:28:45.130Z,57
2022-09-21T20:29:49.562Z,52
2022-09-21T20:30:54.204Z,57
2022-09-21T20:31:58.613Z,51
2022-09-21T20:33:02.941Z,50
2022-09-21T20:34:07.981Z,50
2022-09-21T20:35:12.469Z,52
2022-09-21T20:36:19.649Z,48
2022-09-21T20:37:24.695Z,50
2022-09-21T20:38:29.753Z,52
2022-09-21T20:39:33.982Z,53
2022-09-21T20:40:38.247Z,55
2022-09-21T20:41:43.025Z,52
2022-09-21T20:42:47.348Z,49
2022-09-21T20:43:52.684Z,47
2022-09-21T20:46:00.555Z,52
2022-09-21T20:47:05.861Z,53
2022-09-21T20:48:10.471Z,56
2022-09-21T20:49:14.983Z,54
2022-09-21T20:50:19.242Z,54
2022-09-21T20:51:23.745Z,49
2022-09-21T20:52:27.945Z,57
2022-09-21T20:53:32.290Z,52
2022-09-21T20:54:36.969Z,48
2022-09-21T20:55:41.161Z,56
2022-09-21T20:56:45.754Z,49
2022-09-21T20:57:49.961Z,58
2022-09-21T20:58:54.326Z,57
2022-09-21T21:00:00.189Z,67
2022-09-21T21:01:05.280Z,64
2022-09-21T21:02:09.353Z,64
2022-09-21T21:03:13.641Z,62
2022-09-21T21:04:18.371Z,70
2022-09-21T21:05:23.137Z,62
2022-09-21T21:06:27.362Z,62
2022-09-21T21:07:32.190Z,69
2022-09-21T21:08:36.573Z,72
2022-09-21T21:09:41.065Z,64
2022-09-21T21:10:45.241Z,76
2022-09-21T21:11:50.253Z,68
2022-09-21T21:12:54.793Z,99
2022-09-21T21:13:59.874Z,84
2022-09-21T21:15:04.157Z,86
2022-09-21T21:16:11.993Z,83
2022-09-21T21:17:13.066Z,85
2022-09-21T21:18:17.573Z,79
2022-09-21T21:19:22.112Z,82
2022-09-21T21:20:26.461Z,77
2022-09-21T21:21:30.818Z,85
2022-09-21T21:22:35.685Z,75
2022-09-21T21:23:40.430Z,79
2022-09-21T21:24:49.678Z,77
2022-09-21T21:25:53.909Z,82
2022-09-21T21:27:02.023Z,75
2022-09-21T21:28:03.629Z,85
2022-09-21T21:29:07.992Z,74
2022-09-21T21:30:12.617Z,78
2022-09-21T21:31:21.346Z,89
2022-09-21T21:32:21.786Z,92
2022-09-21T21:33:26.681Z,85
2022-09-21T21:35:34.625Z,75
2022-09-21T21:36:38.902Z,76
2022-09-21T21:37:45.214Z,78
2022-09-21T21:38:49.600Z,91
2022-09-21T21:39:53.864Z,77
2022-09-21T21:40:58.145Z,75
2022-09-21T21:42:02.613Z,77
2022-09-21T21:43:07.413Z,79
2022-09-21T21:44:12.533Z,77
2022-09-21T21:45:17.325Z,73
2022-09-21T21:46:21.614Z,71
2022-09-21T21:47:41.579Z,76
2022-09-21T21:48:30.317Z,73
2022-09-21T21:49:39.845Z,75
2022-09-21T21:50:44.145Z,74
2022-09-21T21:51:48.458Z,73
2022-09-21T21:52:52.762Z,71
2022-09-21T21:54:00.565Z,69
2022-09-21T21:55:05.197Z,67
2022-09-21T21:56:10.301Z,72
2022-09-21T21:57:14.518Z,69
2022-09-21T21:58:18.815Z,75
2022-09-21T21:59:23.130Z,67
2022-09-21T22:00:27.432Z,68
2022-09-21T22:01:31.798Z,67
2022-09-21T22:02:35.975Z,64
2022-09-21T22:03:40.365Z,65
2022-09-21T22:04:45.374Z,67
2022-09-21T22:05:50.481Z,68
2022-09-21T22:06:56.373Z,68
2022-09-21T22:08:00.657Z,64
2022-09-21T22:09:04.896Z,65
2022-09-21T22:10:09.473Z,58
2022-09-21T22:11:13.738Z,57
2022-09-21T22:12:18.185Z,60
2022-09-21T22:13:22.912Z,57
2022-09-21T22:14:27.433Z,59
2022-09-21T22:15:31.704Z,55
2022-09-21T22:16:36.053Z,58
2022-09-21T22:17:40.749Z,53
2022-09-21T22:19:48.885Z,53
2022-09-21T22:20:53.051Z,52
2022-09-21T22:21:57.583Z,67
2022-09-21T22:23:01.938Z,57
2022-09-21T22:24:06.305Z,56
2022-09-21T22:25:10.813Z,65
2022-09-21T22:26:17.012Z,57
2022-09-21T22:27:21.601Z,57
2022-09-21T22:28:26.025Z,58
2022-09-21T22:30:33.942Z,56
2022-09-21T22:31:38.277Z,58
2022-09-21T22:32:42.470Z,65
2022-09-21T22:33:46.733Z,65
2022-09-21T22:34:50.993Z,59
2022-09-21T22:35:55.239Z,52
2022-09-21T22:37:07.387Z,58
2022-09-21T22:38:11.885Z,59
2022-09-21T22:39:16.189Z,52
2022-09-21T22:40:20.492Z,57
2022-09-21T22:41:24.997Z,53
2022-09-21T22:42:29.400Z,57
2022-09-21T22:43:34.425Z,57
2022-09-21T22:44:39.229Z,64
2022-09-21T22:45:43.625Z,58
2022-09-21T22:46:47.853Z,55
2022-09-21T22:47:52.174Z,59
2022-09-21T22:48:56.721Z,57
2022-09-21T22:50:00.958Z,58
2022-09-21T22:51:05.401Z,55
2022-09-21T22:52:09.724Z,60
2022-09-21T22:53:13.841Z,55
2022-09-21T22:54:18.285Z,61
2022-09-21T22:55:22.589Z,52
2022-09-21T22:56:27.280Z,62
2022-09-21T22:57:31.629Z,59
2022-09-21T22:58:35.882Z,51
2022-09-21T22:59:43.097Z,58
2022-09-21T23:00:47.764Z,58
2022-09-21T23:01:51.929Z,57
2022-09-21T23:02:56.161Z,54
2022-09-21T23:04:02.187Z,56
2022-09-21T23:05:09.276Z,71
2022-09-21T23:06:13.828Z,62
2022-09-21T23:07:18.036Z,62
2022-09-21T23:09:26.343Z,64
2022-09-21T23:10:30.621Z,66
2022-09-21T23:11:36.749Z,64
2022-09-21T23:12:41.249Z,74
2022-09-21T23:13:46.057Z,65
2022-09-21T23:14:50.957Z,68
2022-09-21T23:15:55.307Z,62
2022-09-21T23:17:05.305Z,65
2022-09-21T23:18:09.605Z,56
2022-09-21T23:19:14.625Z,54
2022-09-21T23:20:18.896Z,55
2022-09-21T23:21:23.281Z,63
2022-09-21T23:22:27.777Z,58
2022-09-21T23:23:32.105Z,60
2022-09-21T23:24:36.569Z,55
2022-09-21T23:25:41.589Z,61
2022-09-21T23:26:45.840Z,57
2022-09-21T23:27:50.713Z,66
2022-09-21T23:28:55.496Z,59
2022-09-21T23:30:00.208Z,59
2022-09-21T23:31:04.634Z,59
2022-09-21T23:32:09.548Z,52
2022-09-21T23:33:13.984Z,53
2022-09-21T23:34:18.524Z,48
2022-09-21T23:35:22.733Z,48
2022-09-21T23:36:27.297Z,58
2022-09-21T23:37:32.324Z,56
2022-09-21T23:38:36.644Z,65
2022-09-21T23:39:41.805Z,66
2022-09-21T23:40:48.109Z,70
2022-09-21T23:41:52.405Z,62
2022-09-21T23:42:57.381Z,58
2022-09-21T23:44:01.896Z,64
2022-09-21T23:45:06.228Z,61
2022-09-21T23:46:10.640Z,59
2022-09-21T23:47:15.169Z,59
2022-09-21T23:48:21.789Z,53
2022-09-21T23:49:26.081Z,60
2022-09-21T23:50:30.361Z,64
2022-09-21T23:51:34.642Z,52
2022-09-21T23:52:39.112Z,62
2022-09-21T23:53:43.624Z,56
2022-09-21T23:54:47.988Z,49
2022-09-21T23:55:52.477Z,53
2022-09-21T23:56:56.792Z,52
2022-09-21T23:58:01.018Z,50
2022-09-21T23:59:05.616Z,58
